createdAt,value
2023-02-07T00:01:43.209Z,103475.06
2023-02-07T00:04:10.240Z,103483.00
2023-02-07T00:06:37.361Z,103482.13
2023-02-07T00:09:08.070Z,103488.28
2023-02-07T00:11:44.170Z,103477.72
2023-02-07T00:14:15.351Z,103478.59
2023-02-07T00:16:42.702Z,103482.09
2023-02-07T00:19:09.816Z,103475.94
2023-02-07T00:21:36.848Z,103472.44
2023-02-07T00:24:04.103Z,103462.75
2023-02-07T00:26:30.929Z,103454.81
2023-02-07T00:29:00.944Z,103452.16
2023-02-07T00:31:35.649Z,103442.44
2023-02-07T00:34:08.116Z,103429.19
2023-02-07T00:36:37.641Z,103423.03
2023-02-07T00:39:15.686Z,103423.94
2023-02-07T00:41:44.044Z,103421.31
2023-02-07T00:44:17.109Z,103425.69
2023-02-07T00:46:43.917Z,103423.94
2023-02-07T00:49:11.293Z,103414.25
2023-02-07T00:51:38.337Z,103422.19
2023-02-07T00:54:08.622Z,103413.34
2023-02-07T00:56:35.456Z,103424.84
2023-02-07T00:59:04.726Z,103427.50
2023-02-07T01:01:31.903Z,103423.97
2023-02-07T01:03:58.805Z,103430.13
2023-02-07T01:06:33.503Z,103429.25
2023-02-07T01:09:03.476Z,103426.63
2023-02-07T01:11:30.718Z,103424.84
2023-02-07T01:14:02.404Z,103429.22
2023-02-07T01:16:35.678Z,103421.31
2023-02-07T01:19:12.165Z,103433.66
2023-02-07T01:21:50.072Z,103434.53
2023-02-07T01:24:17.233Z,103427.50
2023-02-07T01:26:46.646Z,103438.97
2023-02-07T01:29:15.881Z,103432.81
2023-02-07T01:31:45.725Z,103426.63
2023-02-07T01:34:13.907Z,103430.16
2023-02-07T01:36:44.218Z,103431.03
2023-02-07T01:39:11.626Z,103429.25
2023-02-07T01:41:42.426Z,103424.88
2023-02-07T01:44:28.949Z,103424.84
2023-02-07T01:46:59.887Z,103420.47
2023-02-07T01:49:34.557Z,103414.31
2023-02-07T01:52:16.329Z,103410.78
2023-02-07T01:54:49.571Z,103412.56
2023-02-07T01:57:22.746Z,103418.72
2023-02-07T02:00:01.466Z,103409.91
2023-02-07T02:02:37.231Z,103414.31
2023-02-07T02:05:05.022Z,103420.47
2023-02-07T02:07:34.079Z,103416.97
2023-02-07T02:10:01.899Z,103418.69
2023-02-07T02:13:13.666Z,103409.91
2023-02-07T02:16:18.589Z,103397.56
2023-02-07T02:19:16.419Z,103394.91
2023-02-07T02:22:19.007Z,103397.56
2023-02-07T02:25:15.711Z,103402.81
2023-02-07T02:28:36.421Z,103403.72
2023-02-07T02:34:31.601Z,103401.06
2023-02-07T02:38:16.627Z,103394.91
2023-02-07T02:41:19.374Z,103394.91
2023-02-07T02:44:06.636Z,103400.22
2023-02-07T02:46:43.562Z,103401.09
2023-02-07T02:49:16.334Z,103402.84
2023-02-07T02:51:52.877Z,103397.56
2023-02-07T02:54:37.810Z,103413.44
2023-02-07T02:57:16.386Z,103421.34
2023-02-07T03:00:14.081Z,103409.00
2023-02-07T03:03:05.416Z,103401.09
2023-02-07T03:06:22.054Z,103391.41
2023-02-07T03:10:00.484Z,103387.00
2023-02-07T03:12:50.530Z,103380.84
2023-02-07T03:15:45.941Z,103384.38
2023-02-07T03:18:21.092Z,103383.47
2023-02-07T03:21:27.580Z,103386.13
2023-02-07T03:24:07.847Z,103391.41
2023-02-07T03:26:38.169Z,103391.41
2023-02-07T03:29:09.964Z,103387.91
2023-02-07T03:31:45.250Z,103393.19
2023-02-07T03:34:27.769Z,103391.41
2023-02-07T03:37:04.544Z,103393.19
2023-02-07T03:39:32.419Z,103388.75
2023-02-07T03:42:23.326Z,103393.19
2023-02-07T03:44:58.226Z,103391.41
2023-02-07T03:47:27.838Z,103380.84
2023-02-07T03:49:55.012Z,103385.25
2023-02-07T03:52:22.162Z,103379.09
2023-02-07T03:54:51.526Z,103379.97
2023-02-07T03:57:18.349Z,103386.13
2023-02-07T03:59:44.970Z,103379.97
2023-02-07T04:02:12.047Z,103373.78
2023-02-07T04:04:41.424Z,103369.38
2023-02-07T04:07:08.549Z,103369.38
2023-02-07T04:09:37.679Z,103370.25
2023-02-07T04:12:05.369Z,103366.69
2023-02-07T04:14:32.135Z,103372.03
2023-02-07T04:16:58.903Z,103379.03
2023-02-07T04:19:37.543Z,103380.81
2023-02-07T04:22:04.231Z,103376.44
2023-02-07T04:24:32.358Z,103390.53
2023-02-07T04:26:59.725Z,103387.00
2023-02-07T04:29:29.444Z,103373.81
2023-02-07T04:31:58.742Z,103385.22
2023-02-07T04:34:29.032Z,103383.47
2023-02-07T04:36:56.609Z,103389.66
2023-02-07T04:39:23.329Z,103376.44
2023-02-07T04:41:53.235Z,103389.59
2023-02-07T04:44:19.982Z,103391.41
2023-02-07T04:46:55.425Z,103392.28
2023-02-07T04:49:22.199Z,103381.72
2023-02-07T04:51:54.076Z,103379.06
2023-02-07T04:54:20.814Z,103379.91
2023-02-07T04:56:55.989Z,103386.06
2023-02-07T04:59:22.723Z,103376.41
2023-02-07T05:01:53.672Z,103390.44
2023-02-07T05:04:20.312Z,103387.81
2023-02-07T05:06:49.486Z,103382.53
2023-02-07T05:09:18.826Z,103378.13
2023-02-07T05:11:45.674Z,103381.69
2023-02-07T05:14:12.355Z,103379.03
2023-02-07T05:16:39.093Z,103390.44
2023-02-07T05:19:06.275Z,103382.56
2023-02-07T05:21:33.238Z,103377.25
2023-02-07T05:24:00.138Z,103378.19
2023-02-07T05:26:26.803Z,103368.50
2023-02-07T05:28:54.750Z,103376.41
2023-02-07T05:31:53.629Z,103372.00
2023-02-07T05:34:20.550Z,103374.63
2023-02-07T05:36:47.184Z,103382.56
2023-02-07T05:39:15.965Z,103382.56
2023-02-07T05:41:42.682Z,103386.91
2023-02-07T05:44:09.268Z,103389.56
2023-02-07T05:46:36.138Z,103391.34
2023-02-07T05:49:06.382Z,103390.44
2023-02-07T05:51:33.175Z,103395.72
2023-02-07T05:53:59.809Z,103393.97
2023-02-07T05:56:29.366Z,103396.63
2023-02-07T05:58:56.168Z,103407.16
2023-02-07T06:01:22.828Z,103406.25
2023-02-07T06:03:52.611Z,103418.53
2023-02-07T06:06:19.289Z,103417.63
2023-02-07T06:08:46.255Z,103420.22
2023-02-07T06:11:12.910Z,103411.41
2023-02-07T06:13:41.725Z,103425.44
2023-02-07T06:16:12.453Z,103424.47
2023-02-07T06:18:41.762Z,103423.56
2023-02-07T06:21:08.627Z,103432.31
2023-02-07T06:23:35.709Z,103427.00
2023-02-07T06:26:02.377Z,103426.88
2023-02-07T06:28:31.067Z,103432.09
2023-02-07T06:31:00.054Z,103441.69
2023-02-07T06:33:26.882Z,103431.94
2023-02-07T06:35:55.622Z,103436.38
2023-02-07T06:38:23.015Z,103437.31
2023-02-07T06:40:53.254Z,103430.34
2023-02-07T06:43:19.948Z,103438.34
2023-02-07T06:45:49.190Z,103438.31
2023-02-07T06:48:16.166Z,103442.63
2023-02-07T06:50:42.752Z,103439.97
2023-02-07T06:53:09.816Z,103447.88
2023-02-07T08:14:19.536Z,103428.31
2023-02-07T08:16:46.197Z,103429.03
2023-02-07T08:19:16.091Z,103430.56
2023-02-07T08:21:52.252Z,103427.75
2023-02-07T08:24:19.047Z,103422.22
2023-02-07T08:26:50.824Z,103435.03
2023-02-07T08:29:19.900Z,103429.41
2023-02-07T08:31:51.719Z,103419.28
2023-02-07T08:34:26.140Z,103424.34
2023-02-07T08:36:53.323Z,103422.50
2023-02-07T08:39:20.603Z,103418.91
2023-02-07T08:41:54.867Z,103413.50
2023-02-07T08:44:21.463Z,103411.50
2023-02-07T08:46:56.380Z,103408.19
2023-02-07T08:49:25.198Z,103399.50
2023-02-07T08:51:56.845Z,103406.50
2023-02-07T08:54:23.574Z,103407.16
2023-02-07T08:56:56.030Z,103406.34
2023-02-07T08:59:24.137Z,103395.66
2023-02-07T09:01:51.139Z,103395.47
2023-02-07T09:04:17.946Z,103403.72
2023-02-07T09:06:55.721Z,103401.63
2023-02-07T09:09:22.720Z,103400.66
2023-02-07T09:11:54.478Z,103391.19
2023-02-07T09:14:21.404Z,103382.44
2023-02-07T09:16:55.216Z,103389.63
2023-02-07T09:19:22.307Z,103389.16
2023-02-07T09:21:51.915Z,103391.56
2023-02-07T09:24:37.257Z,103393.56
2023-02-07T09:27:04.012Z,103399.50
2023-02-07T09:32:14.498Z,103404.41
2023-02-07T09:34:47.598Z,103404.16
2023-02-07T09:37:14.737Z,103405.84
2023-02-07T09:39:58.066Z,103407.63
2023-02-07T09:42:58.746Z,103405.19
2023-02-07T09:45:45.029Z,103404.72
2023-02-07T09:48:27.565Z,103416.47
2023-02-07T09:51:05.292Z,103414.41
2023-02-07T09:54:05.652Z,103400.66
2023-02-07T09:56:44.616Z,103402.44
2023-02-07T10:00:03.640Z,103405.50
2023-02-07T10:02:44.627Z,103409.50
2023-02-07T10:06:09.245Z,103410.41
2023-02-07T10:08:55.060Z,103403.22
2023-02-07T10:11:46.165Z,103404.41
2023-02-07T10:15:02.489Z,103413.94
2023-02-07T10:18:32.752Z,103414.03
2023-02-07T10:21:19.865Z,103418.38
2023-02-07T10:24:26.794Z,103421.81
2023-02-07T10:27:11.726Z,103427.81
2023-02-07T10:30:21.408Z,103426.03
2023-02-07T10:32:49.770Z,103429.53
2023-02-07T10:35:33.088Z,103432.34
2023-02-07T10:38:03.442Z,103426.91
2023-02-07T10:40:52.675Z,103423.38
2023-02-07T10:43:35.345Z,103433.69
2023-02-07T10:46:26.363Z,103426.84
2023-02-07T10:48:53.338Z,103418.19
2023-02-07T10:51:45.813Z,103428.41
2023-02-07T10:54:20.970Z,103407.50
2023-02-07T10:57:02.861Z,103404.19
2023-02-07T10:59:37.455Z,103411.16
2023-02-07T11:02:37.402Z,103408.81
2023-02-07T11:05:19.113Z,103404.09
2023-02-07T11:07:59.268Z,103396.13
2023-02-07T11:10:35.265Z,103385.56
2023-02-07T11:13:05.179Z,103386.53
2023-02-07T11:16:09.946Z,103381.66
2023-02-07T11:18:56.154Z,103378.59
2023-02-07T11:21:42.770Z,103379.69
2023-02-07T11:24:25.252Z,103373.19
2023-02-07T11:27:04.106Z,103382.94
2023-02-07T11:29:54.989Z,103384.00
2023-02-07T11:32:27.185Z,103385.06
2023-02-07T11:35:16.088Z,103377.94
2023-02-07T11:38:13.722Z,103384.69
2023-02-07T11:40:43.407Z,103388.53
2023-02-07T11:43:09.946Z,103393.78
2023-02-07T11:45:44.834Z,103382.94
2023-02-07T11:48:43.436Z,103381.31
2023-02-07T11:51:18.696Z,103381.16
2023-02-07T12:41:42.378Z,103376.50
2023-02-07T12:44:43.748Z,103376.63
2023-02-07T12:47:44.507Z,103359.22
2023-02-07T13:38:55.470Z,103348.72
2023-02-07T13:45:19.575Z,103349.06
2023-02-07T13:48:09.365Z,103347.00
2023-02-07T13:51:01.032Z,103348.78
2023-02-07T13:54:12.663Z,103348.28
2023-02-07T13:56:57.819Z,103348.19
2023-02-07T13:59:42.034Z,103344.16
2023-02-07T14:02:22.738Z,103347.09
2023-02-07T14:04:58.619Z,103355.41
2023-02-07T14:07:36.092Z,103331.41
2023-02-07T14:10:05.558Z,103336.22
2023-02-07T14:12:42.488Z,103341.91
2023-02-07T14:15:28.208Z,103337.75
2023-02-07T14:18:57.602Z,103332.59
2023-02-07T14:21:49.861Z,103332.75
2023-02-07T14:24:41.932Z,103325.69
2023-02-07T14:27:43.021Z,103326.69
2023-02-07T14:30:12.942Z,103335.28
2023-02-07T14:33:05.530Z,103328.94
2023-02-07T14:35:44.527Z,103330.91
2023-02-07T14:38:55.265Z,103347.81
2023-02-07T14:41:35.650Z,103336.75
2023-02-07T14:44:12.063Z,103336.84
2023-02-07T14:58:50.630Z,103324.19
2023-02-07T15:01:25.860Z,103325.09
2023-02-07T15:04:06.948Z,103327.22
2023-02-07T15:06:45.883Z,103326.13
2023-02-07T15:09:27.633Z,103331.19
2023-02-07T15:12:22.344Z,103339.94
2023-02-07T15:14:57.211Z,103346.72
2023-02-07T15:17:42.654Z,103341.00
2023-02-07T15:20:38.278Z,103344.38
2023-02-07T15:23:07.702Z,103341.53
2023-02-07T15:25:38.404Z,103351.19
2023-02-07T15:28:29.152Z,103334.09
2023-02-07T15:31:15.671Z,103338.16
2023-02-07T15:34:00.533Z,103320.94
2023-02-07T15:36:49.549Z,103321.41
2023-02-07T15:39:31.980Z,103327.94
2023-02-07T15:41:59.012Z,103322.78
2023-02-07T15:44:34.354Z,103325.69
2023-02-07T15:47:07.630Z,103322.34
2023-02-07T15:49:43.831Z,103317.25
2023-02-07T15:52:34.314Z,103329.75
2023-02-07T15:55:17.796Z,103328.94
2023-02-07T15:57:45.419Z,103322.84
2023-02-07T16:00:36.140Z,103321.13
2023-02-07T16:03:29.055Z,103313.28
2023-02-07T16:06:25.346Z,103319.63
2023-02-07T16:08:57.389Z,103314.47
2023-02-07T16:11:29.027Z,103307.53
2023-02-07T16:14:28.436Z,103314.75
2023-02-07T16:16:58.670Z,103314.00
2023-02-07T16:19:33.114Z,103309.66
2023-02-07T16:22:16.581Z,103317.69
2023-02-07T16:24:54.190Z,103306.25
2023-02-07T16:27:33.854Z,103315.06
2023-02-07T16:30:05.816Z,103313.13
2023-02-07T16:32:42.897Z,103321.91
2023-02-07T16:35:28.110Z,103335.13
2023-02-07T16:37:57.696Z,103328.00
2023-02-07T16:40:26.661Z,103330.66
2023-02-07T16:42:56.687Z,103328.91
2023-02-07T16:45:29.877Z,103321.88
2023-02-07T16:48:00.302Z,103329.03
2023-02-07T16:50:31.487Z,103326.47
2023-02-07T16:52:59.463Z,103325.63
2023-02-07T16:55:35.280Z,103321.31
2023-02-07T16:58:07.411Z,103311.66
2023-02-07T17:00:34.569Z,103328.50
2023-02-07T17:03:04.226Z,103316.16
2023-02-07T17:05:30.969Z,103317.09
2023-02-07T17:08:00.275Z,103309.19
2023-02-07T17:10:35.181Z,103299.53
2023-02-07T17:13:02.248Z,103296.97
2023-02-07T17:15:36.186Z,103309.31
2023-02-07T17:18:05.457Z,103310.25
2023-02-07T17:20:34.957Z,103309.38
2023-02-07T17:23:01.671Z,103304.97
2023-02-07T17:25:32.306Z,103304.13
2023-02-07T17:28:00.287Z,103307.66
2023-02-07T17:30:42.092Z,103310.31
2023-02-07T17:33:11.069Z,103304.16
2023-02-07T17:35:41.779Z,103308.53
2023-02-07T17:38:09.909Z,103311.19
2023-02-07T17:40:47.255Z,103317.34
2023-02-07T17:43:14.001Z,103318.22
2023-02-07T17:45:46.111Z,103312.88
2023-02-07T17:48:13.310Z,103316.44
2023-02-07T17:50:43.267Z,103321.72
2023-02-07T17:53:11.070Z,103326.13
2023-02-07T17:55:38.588Z,103326.13
2023-02-07T17:58:08.388Z,103328.78
2023-02-07T18:00:42.238Z,103323.47
2023-02-07T18:08:31.413Z,103318.09
2023-02-07T18:11:01.574Z,103311.00
2023-02-07T18:13:28.171Z,103314.56
2023-02-07T18:15:54.963Z,103317.16
2023-02-07T18:18:26.897Z,103320.69
2023-02-07T18:20:54.344Z,103317.19
2023-02-07T18:23:23.191Z,103310.09
2023-02-07T18:25:56.039Z,103307.47
2023-02-07T18:28:28.657Z,103308.38
2023-02-07T18:30:57.954Z,103314.56
2023-02-07T18:33:28.496Z,103317.22
2023-02-07T18:35:58.836Z,103312.75
2023-02-07T18:38:35.067Z,103305.72
2023-02-07T18:41:12.788Z,103313.63
2023-02-07T18:43:43.754Z,103316.28
2023-02-07T18:46:16.983Z,103313.72
2023-02-07T18:48:51.133Z,103315.50
2023-02-07T18:51:19.643Z,103320.78
2023-02-07T18:53:46.939Z,103317.25
2023-02-07T18:56:20.016Z,103319.03
2023-02-07T18:58:50.898Z,103315.56
2023-02-07T19:01:21.202Z,103323.50
2023-02-07T19:03:54.208Z,103327.94
2023-02-07T19:06:28.522Z,103326.13
2023-02-07T19:08:58.645Z,103332.31
2023-02-07T19:17:03.582Z,103343.75
2023-02-07T19:22:26.741Z,103336.69
2023-02-07T19:57:36.558Z,103326.25
2023-02-07T20:16:36.074Z,103328.78
2023-02-07T20:27:09.834Z,103329.72
2023-02-07T20:29:36.513Z,103335.91
2023-02-07T20:32:03.204Z,103335.91
2023-02-07T20:42:49.233Z,103332.41
2023-02-07T20:45:16.614Z,103329.75
2023-02-07T20:47:43.473Z,103341.22
2023-02-07T20:50:10.381Z,103335.03
2023-02-07T20:52:37.553Z,103338.59
2023-02-07T21:00:38.752Z,103334.16
2023-02-07T21:08:30.717Z,103330.66
2023-02-07T21:10:58.314Z,103339.44
2023-02-07T21:18:52.771Z,103338.59
2023-02-07T21:21:22.539Z,103338.59
2023-02-07T21:40:01.106Z,103352.66
2023-02-07T21:42:34.673Z,103348.25
2023-02-07T21:47:42.359Z,103340.34
2023-02-07T21:50:09.508Z,103342.97
2023-02-07T21:52:45.576Z,103337.69
2023-02-07T21:55:12.224Z,103335.94
2023-02-07T21:57:38.883Z,103335.03
2023-02-07T22:00:08.223Z,103339.44
2023-02-07T22:02:35.854Z,103346.44
2023-02-07T22:05:05.946Z,103349.06
2023-02-07T22:07:38.485Z,103347.28
2023-02-07T22:10:08.832Z,103346.41
2023-02-07T22:12:35.509Z,103340.22
2023-02-07T22:15:05.075Z,103337.59
2023-02-07T22:17:31.897Z,103334.09
2023-02-07T22:19:58.505Z,103334.97
2023-02-07T22:22:32.565Z,103335.88
2023-02-07T22:24:59.175Z,103336.78
2023-02-07T22:27:25.837Z,103342.03
2023-02-07T22:29:53.019Z,103336.75
2023-02-07T22:32:23.265Z,103335.00
2023-02-07T22:34:53.210Z,103332.38
2023-02-07T22:37:19.875Z,103339.41
2023-02-07T22:39:53.084Z,103342.03
2023-02-07T22:42:19.802Z,103341.16
2023-02-07T22:45:07.208Z,103333.22
2023-02-07T22:47:36.804Z,103334.09
2023-02-07T22:50:10.933Z,103330.59
2023-02-07T22:52:43.273Z,103327.09
2023-02-07T22:55:10.032Z,103338.53
2023-02-07T22:57:36.893Z,103329.72
2023-02-07T23:00:10.436Z,103334.13
2023-02-07T23:02:37.650Z,103341.13
2023-02-07T23:05:07.950Z,103341.13
2023-02-07T23:07:36.248Z,103340.25
2023-02-07T23:10:12.106Z,103346.41
2023-02-07T23:15:20.137Z,103339.31
2023-02-07T23:17:46.968Z,103341.09
2023-02-07T23:20:13.907Z,103341.97
2023-02-07T23:22:43.543Z,103340.22
2023-02-07T23:25:11.909Z,103346.41
2023-02-07T23:27:39.071Z,103347.25
2023-02-07T23:30:07.492Z,103349.00
2023-02-07T23:32:35.352Z,103351.63
2023-02-07T23:35:02.024Z,103353.34
2023-02-07T23:37:28.907Z,103350.72
2023-02-07T23:39:55.944Z,103350.72
2023-02-07T23:42:22.680Z,103350.72
2023-02-07T23:44:52.190Z,103354.19
2023-02-07T23:47:19.530Z,103359.44
2023-02-07T23:49:46.187Z,103358.56
2023-02-07T23:52:12.806Z,103357.69
2023-02-07T23:54:39.983Z,103360.28
2023-02-07T23:57:06.690Z,103361.13
2023-02-07T23:59:36.533Z,103349.66
